CYWE

Wekweeti

Wekweeti, Northwest Territories, Canada
METAR CYWE 201501Z AUTO 18005KT 9SM OVC046 M34/M38 A3015 RMK SLP280
Observed Flight Rules
Feb-20 @ 15:01 UTC (2 hours ago) Visual Flight Rules
Wind Visibility Clouds
180° at 5 knots 9 miles
  • Overcast at 4,600' AGL
Temperatures Readings
Current -34°C / -29°F
Dewpoint -38°C / -36°F
Humidity 67%
Altimeter 30.15" Hg
Pressure 1028 hPa
Elevation 371
METAR CYWE 201501Z AUTO 18005KT 9SM OVC046 M34/M38 A3015 RMK SLP280
Observed Flight Rules
Feb-20 @ 15:01 UTC
(2 hours ago)
VFR
Wind Visibility
180° at 5 knots 9 miles
Clouds
  • Overcast at 4,600' AGL
Temperature Dewpoint
-34°C / -29°F -38°C / -36°F
Humidity Altimeter Pressure
67% 30.15" Hg 1028 hPa